Time;durP1;ratioP1;P1;durP2;ratioP2;P2;SDS_P1;SDS_P2;PMS_P1;PMS_P2;Temp;Humidity;BMP_temperature;BMP_pressure;BME280_temperature;BME280_humidity;BME280_pressure;Samples;Min_cycle;Max_cycle;Signal;HPM_P1;HPM_P2
2022/02/09 00:02:34;;;;;;;9.80;5.88;;;9.70;99.90;;;;;;5031609;28;20266;-68
2022/02/09 00:05:21;;;;;;;8.65;5.90;;;9.70;99.90;;;;;;5032103;28;20733;-68
2022/02/09 00:07:58;;;;;;;8.60;6.53;;;9.60;99.90;;;;;;5032374;28;20204;-68
2022/02/09 00:10:26;;;;;;;8.23;6.65;;;9.50;99.90;;;;;;5031406;28;20212;-68
2022/02/09 00:13:06;;;;;;;8.07;6.55;;;9.50;99.90;;;;;;5034526;28;20215;-68
2022/02/09 00:15:39;;;;;;;7.10;6.10;;;9.40;99.90;;;;;;5035768;28;20250;-68
2022/02/09 00:18:14;;;;;;;10.10;6.10;;;9.50;99.90;;;;;;5035891;28;20204;-69
2022/02/09 00:26:43;;;;;;;10.10;6.13;;;9.50;99.90;;;;;;5006914;28;20229;-70
2022/02/09 00:40:51;;;;;;;8.57;6.72;;;9.50;99.90;;;;;;5076810;28;20206;-69
2022/02/09 00:43:39;;;;;;;11.40;6.60;;;9.60;99.90;;;;;;5076204;28;20226;-69
2022/02/09 01:38:07;;;;;;;8.07;6.30;;;9.60;99.90;;;;;;5076094;28;20205;-69
2022/02/09 01:39:00;;;;;;;7.68;5.72;;;9.50;99.90;;;;;;5075613;28;20206;-70
2022/02/09 01:55:43;;;;;;;8.75;6.97;;;9.10;99.90;;;;;;5075471;28;20244;-69
2022/02/09 01:58:10;;;;;;;9.05;5.95;;;9.20;99.90;;;;;;5075159;28;20298;-69
2022/02/09 02:00:39;;;;;;;12.23;7.05;;;9.30;99.90;;;;;;5074851;28;20702;-69
2022/02/09 02:03:06;;;;;;;7.15;6.05;;;9.40;99.90;;;;;;5075070;28;20230;-69
2022/02/09 02:05:35;;;;;;;8.30;6.35;;;9.40;99.90;;;;;;5074776;28;20226;-70
2022/02/09 02:08:03;;;;;;;7.53;5.55;;;9.50;99.90;;;;;;5075185;28;20207;-69
2022/02/09 02:10:39;;;;;;;6.93;6.15;;;9.50;99.90;;;;;;5074825;28;20616;-69
2022/02/09 02:13:18;;;;;;;6.90;5.65;;;9.50;99.90;;;;;;5075006;28;20307;-70
2022/02/09 02:18:44;;;;;;;6.43;5.30;;;9.50;99.90;;;;;;4993337;28;20244;-69
2022/02/09 02:21:23;;;;;;;9.10;5.85;;;9.50;99.90;;;;;;5055833;28;20202;-69
2022/02/09 02:24:28;;;;;;;7.38;5.00;;;9.40;99.90;;;;;;5074799;28;20222;-69
2022/02/09 02:27:07;;;;;;;8.05;5.10;;;9.50;99.90;;;;;;5074939;28;20190;-70
2022/02/09 02:32:53;;;;;;;9.10;5.97;;;9.50;99.90;;;;;;4992953;28;20276;-69
2022/02/09 02:47:00;;;;;;;7.53;5.85;;;9.60;99.90;;;;;;5074100;28;20187;-69
2022/02/09 03:08:45;;;;;;;5.45;4.50;;;9.50;99.90;;;;;;5073695;28;20244;-69
2022/02/09 03:13:59;;;;;;;5.82;4.97;;;9.10;99.90;;;;;;5069813;28;20204;-69
2022/02/09 03:16:32;;;;;;;6.18;4.60;;;9.10;99.90;;;;;;5073648;28;20293;-69
2022/02/09 03:19:21;;;;;;;6.00;4.60;;;9.20;99.90;;;;;;5073506;28;20198;-69
2022/02/09 03:21:54;;;;;;;6.03;5.10;;;9.20;99.90;;;;;;5073168;28;20211;-69
2022/02/09 03:24:35;;;;;;;6.20;4.80;;;9.20;99.90;;;;;;5073327;28;20202;-69
2022/02/09 03:27:29;;;;;;;6.65;5.00;;;9.20;99.90;;;;;;5073724;28;20189;-69
2022/02/09 03:44:17;;;;;;;5.60;5.00;;;9.30;99.90;;;;;;4992072;28;20217;-69
2022/02/09 03:47:11;;;;;;;8.35;5.35;;;9.30;99.90;;;;;;5070234;28;20728;-69
2022/02/09 03:49:56;;;;;;;7.10;5.00;;;9.40;99.90;;;;;;5077688;28;20207;-69
2022/02/09 03:52:48;;;;;;;5.75;4.90;;;9.40;99.90;;;;;;5077483;28;20209;-69
2022/02/09 03:55:19;;;;;;;5.32;3.80;;;9.40;99.90;;;;;;5077204;28;20230;-69
2022/02/09 03:57:46;;;;;;;5.10;4.03;;;9.30;99.90;;;;;;5077721;28;20257;-69
2022/02/09 04:00:14;;;;;;;4.93;3.35;;;9.40;99.90;;;;;;5077108;28;20202;-69
2022/02/09 04:02:45;;;;;;;5.10;4.03;;;9.30;99.90;;;;;;5077264;28;20258;-69
2022/02/09 04:05:12;;;;;;;4.63;3.50;;;9.40;99.90;;;;;;5077130;28;20223;-70
2022/02/09 04:07:38;;;;;;;4.50;3.35;;;9.40;99.90;;;;;;5077054;28;20199;-69
2022/02/09 04:10:09;;;;;;;3.80;2.70;;;9.40;99.90;;;;;;5077448;28;20213;-69
2022/02/09 04:12:41;;;;;;;3.42;2.90;;;9.40;99.90;;;;;;5077134;28;20298;-70
2022/02/09 04:15:21;;;;;;;2.80;2.40;;;9.40;99.90;;;;;;5077180;28;20227;-69
2022/02/09 04:18:02;;;;;;;3.83;2.30;;;9.30;99.90;;;;;;5077366;28;20607;-69
2022/02/09 04:22:25;;;;;;;4.28;2.50;;;9.30;99.90;;;;;;5076647;28;20660;-69
2022/02/09 04:37:10;;;;;;;2.55;1.95;;;9.30;99.90;;;;;;5076435;28;20274;-69
2022/02/09 04:39:45;;;;;;;3.03;2.35;;;9.30;99.90;;;;;;5076543;28;20209;-69
2022/02/09 04:42:43;;;;;;;2.58;2.25;;;9.30;99.90;;;;;;5076285;28;20255;-69
2022/02/09 04:45:38;;;;;;;2.42;1.88;;;9.40;99.90;;;;;;5076350;28;20226;-69
2022/02/09 04:48:27;;;;;;;2.67;2.03;;;9.40;99.90;;;;;;5076170;28;20784;-69
2022/02/09 04:51:00;;;;;;;3.95;2.45;;;9.40;99.90;;;;;;5075933;28;20293;-69
2022/02/09 04:56:12;;;;;;;2.63;2.30;;;9.40;99.90;;;;;;5075892;28;20301;-69
2022/02/09 04:58:47;;;;;;;5.57;2.97;;;9.40;99.90;;;;;;5075059;28;20293;-69
2022/02/09 05:01:34;;;;;;;2.95;2.55;;;9.40;99.90;;;;;;5075880;28;20232;-69
2022/02/09 05:04:19;;;;;;;3.92;3.35;;;9.50;99.90;;;;;;5075671;28;20218;-69
2022/02/09 05:18:02;;;;;;;2.50;2.28;;;9.50;99.90;;;;;;5076045;28;20220;-69
2022/02/09 05:23:46;;;;;;;4.93;4.00;;;9.50;99.90;;;;;;5000929;28;20218;-69
2022/02/09 05:26:23;;;;;;;2.95;2.70;;;9.50;99.90;;;;;;5075221;28;20694;-69
2022/02/09 05:28:50;;;;;;;2.97;2.28;;;9.50;99.90;;;;;;5075766;28;20217;-69
2022/02/09 05:31:17;;;;;;;2.38;2.17;;;9.50;99.90;;;;;;5075315;28;20293;-69
2022/02/09 05:33:44;;;;;;;2.67;2.47;;;9.50;99.90;;;;;;5075470;28;20225;-69
2022/02/09 05:36:11;;;;;;;3.70;2.63;;;9.50;99.90;;;;;;5075375;28;20219;-69
2022/02/09 05:38:39;;;;;;;2.95;2.25;;;9.50;99.90;;;;;;5075287;28;20213;-69
2022/02/09 05:41:06;;;;;;;2.85;1.83;;;9.60;99.90;;;;;;5075232;28;20225;-69
2022/02/09 05:43:33;;;;;;;5.53;2.60;;;9.60;99.90;;;;;;5075248;28;20234;-69
2022/02/09 05:46:27;;;;;;;6.53;2.92;;;9.60;99.90;;;;;;5074839;28;20309;-69
2022/02/09 05:51:53;;;;;;;5.60;3.00;;;9.50;99.90;;;;;;5090956;28;20648;-68
2022/02/09 05:54:42;;;;;;;2.88;2.45;;;9.50;99.90;;;;;;5091253;28;20202;-68
2022/02/09 05:57:24;;;;;;;2.33;2.13;;;9.50;99.90;;;;;;5091130;28;20210;-68
2022/02/09 05:59:51;;;;;;;2.92;2.53;;;9.40;99.90;;;;;;5090632;28;20293;-68
2022/02/09 06:02:19;;;;;;;4.22;2.42;;;9.40;99.90;;;;;;5091011;28;20296;-68
2022/02/09 06:04:46;;;;;;;3.80;2.50;;;9.50;99.90;;;;;;5090947;28;20222;-68
2022/02/09 06:07:19;;;;;;;4.22;2.35;;;9.50;99.90;;;;;;5090868;28;20668;-69
2022/02/09 06:09:46;;;;;;;4.22;2.55;;;9.60;99.90;;;;;;5090831;28;20222;-69
2022/02/09 06:12:18;;;;;;;2.47;2.28;;;9.70;99.90;;;;;;5090994;28;20198;-70
2022/02/09 06:15:04;;;;;;;7.15;4.10;;;9.70;99.90;;;;;;5091238;28;20291;-68
2022/02/09 06:20:17;;;;;;;5.55;3.55;;;9.50;99.90;;;;;;5090738;28;20667;-69
2022/02/09 06:22:45;;;;;;;4.72;3.17;;;9.50;99.90;;;;;;5091718;28;20289;-70
2022/02/09 06:25:12;;;;;;;3.30;3.00;;;9.50;99.90;;;;;;5091201;28;20218;-70
2022/02/09 06:27:39;;;;;;;4.70;2.75;;;9.50;99.90;;;;;;5091060;28;20759;-68
2022/02/09 06:30:07;;;;;;;2.92;2.65;;;9.50;99.90;;;;;;5090276;28;20313;-68
2022/02/09 06:32:34;;;;;;;4.93;3.42;;;9.50;99.90;;;;;;5090284;28;20260;-68
2022/02/09 06:35:01;;;;;;;5.18;3.33;;;9.50;99.90;;;;;;5090426;28;20305;-68
2022/02/09 06:37:38;;;;;;;4.45;2.85;;;9.50;99.90;;;;;;5090468;28;20252;-68
2022/02/09 06:40:07;;;;;;;3.78;3.35;;;9.50;99.90;;;;;;5090255;28;20660;-69
2022/02/09 06:42:35;;;;;;;5.15;3.50;;;9.60;99.90;;;;;;5090685;28;20202;-70
2022/02/09 06:45:08;;;;;;;6.30;3.50;;;9.60;99.90;;;;;;5090118;28;20316;-67
2022/02/09 06:47:37;;;;;;;3.40;3.10;;;9.60;99.90;;;;;;5090345;28;20253;-67
2022/02/09 06:50:08;;;;;;;7.03;3.33;;;9.60;99.90;;;;;;5090017;28;20230;-68
2022/02/09 06:52:38;;;;;;;4.13;3.47;;;9.60;99.90;;;;;;5090178;28;20241;-69
2022/02/09 06:55:16;;;;;;;4.95;3.20;;;9.70;99.90;;;;;;5090502;28;20222;-69
2022/02/09 06:58:03;;;;;;;4.78;2.97;;;9.80;99.90;;;;;;5090240;28;20191;-69
2022/02/09 07:00:30;;;;;;;4.68;2.97;;;9.70;99.90;;;;;;5089858;28;20247;-69
2022/02/09 07:02:57;;;;;;;6.57;2.95;;;9.70;99.90;;;;;;5077771;28;20306;-69
2022/02/09 07:05:24;;;;;;;2.67;2.45;;;9.70;99.90;;;;;;5076765;28;20219;-69
2022/02/09 07:07:51;;;;;;;3.47;2.75;;;9.40;99.90;;;;;;5076346;28;20689;-69
2022/02/09 07:10:19;;;;;;;4.47;2.60;;;9.20;99.90;;;;;;5075806;28;20233;-69
2022/02/09 07:12:46;;;;;;;4.43;2.20;;;9.10;99.90;;;;;;5076308;28;20210;-69
2022/02/09 07:15:16;;;;;;;3.63;2.30;;;9.10;99.90;;;;;;5076445;28;20219;-69
2022/02/09 07:17:44;;;;;;;2.67;2.28;;;9.00;99.90;;;;;;5076351;28;20241;-69
2022/02/09 07:20:18;;;;;;;2.70;2.25;;;9.10;99.90;;;;;;5073214;28;20294;-71
2022/02/09 07:22:46;;;;;;;6.10;2.85;;;9.00;99.90;;;;;;5062812;28;20225;-69
2022/02/09 07:25:14;;;;;;;3.60;2.70;;;8.90;99.90;;;;;;5055256;28;20231;-69
2022/02/09 07:27:50;;;;;;;4.72;3.00;;;8.90;99.90;;;;;;5054679;28;20717;-69
2022/02/09 07:30:17;;;;;;;3.67;3.30;;;8.80;99.90;;;;;;5054528;28;20226;-69
2022/02/09 07:32:43;;;;;;;5.22;2.90;;;8.80;99.90;;;;;;5054538;28;20206;-69
2022/02/09 07:35:10;;;;;;;6.82;3.40;;;8.70;99.90;;;;;;5054139;28;20314;-69
2022/02/09 07:37:37;;;;;;;5.57;3.42;;;8.70;99.90;;;;;;5054553;28;20207;-69
2022/02/09 07:40:10;;;;;;;4.53;3.53;;;8.70;99.90;;;;;;5054872;28;20818;-69
2022/02/09 07:42:42;;;;;;;4.40;3.55;;;8.60;99.90;;;;;;5054317;28;20681;-69
2022/02/09 07:45:30;;;;;;;5.15;3.60;;;8.50;99.90;;;;;;5054327;28;20729;-69
2022/02/09 07:50:41;;;;;;;8.82;3.83;;;8.50;99.90;;;;;;5040770;28;20227;-69
2022/02/09 07:53:12;;;;;;;3.97;3.30;;;8.50;99.90;;;;;;5054096;28;20214;-69
2022/02/09 07:55:39;;;;;;;4.28;3.60;;;8.50;99.90;;;;;;5054470;28;20230;-70
2022/02/09 07:58:06;;;;;;;9.15;3.22;;;8.40;99.90;;;;;;5055237;28;20204;-69
2022/02/09 08:00:35;;;;;;;5.40;3.78;;;8.50;99.90;;;;;;5054949;28;20676;-69
2022/02/09 08:03:02;;;;;;;5.35;3.25;;;8.50;99.90;;;;;;5055550;28;20294;-70
2022/02/09 08:05:29;;;;;;;4.07;3.10;;;8.50;99.90;;;;;;5055734;28;20357;-70
2022/02/09 08:07:56;;;;;;;5.30;3.40;;;8.50;99.90;;;;;;5055080;28;20199;-70
2022/02/09 08:10:28;;;;;;;4.88;3.40;;;8.40;99.90;;;;;;5054654;28;20219;-69
2022/02/09 08:24:25;;;;;;;6.28;3.90;;;8.40;99.90;;;;;;5054583;28;20642;-69
2022/02/09 08:27:05;;;;;;;5.13;4.05;;;8.40;99.90;;;;;;5054805;28;20245;-69
2022/02/09 08:29:44;;;;;;;5.95;4.13;;;8.40;99.90;;;;;;5054635;28;20227;-70
2022/02/09 08:34:56;;;;;;;8.75;4.90;;;8.00;99.90;;;;;;5054499;28;20345;-69
2022/02/09 08:37:24;;;;;;;7.68;5.50;;;8.10;99.90;;;;;;5054286;28;20688;-69
2022/02/09 08:39:54;;;;;;;11.32;5.50;;;8.20;99.90;;;;;;5054263;28;20209;-69
2022/02/09 08:42:20;;;;;;;5.57;4.97;;;8.20;99.90;;;;;;5054565;28;20547;-69
2022/02/09 08:44:47;;;;;;;8.18;5.68;;;8.20;99.90;;;;;;5054371;28;20223;-70
2022/02/09 08:47:15;;;;;;;7.30;4.78;;;8.20;99.90;;;;;;5054158;28;20661;-70
2022/02/09 08:49:42;;;;;;;12.05;6.10;;;8.20;99.90;;;;;;5054036;28;20214;-70
2022/02/09 08:52:09;;;;;;;7.65;5.55;;;8.20;99.90;;;;;;5054097;28;20223;-69
2022/02/09 08:54:36;;;;;;;7.65;5.18;;;8.20;99.90;;;;;;5054223;28;20224;-69
2022/02/09 08:57:09;;;;;;;6.15;5.35;;;8.20;99.90;;;;;;5054270;28;20204;-69
2022/02/09 08:59:36;;;;;;;5.57;4.85;;;8.20;99.90;;;;;;5054462;28;20294;-70
2022/02/09 09:02:07;;;;;;;11.43;5.60;;;8.10;99.90;;;;;;5054525;28;20200;-69
2022/02/09 09:04:39;;;;;;;7.45;5.28;;;8.00;99.90;;;;;;5054150;28;20677;-69
2022/02/09 09:07:12;;;;;;;10.55;5.10;;;8.00;99.90;;;;;;5054267;28;20245;-70
2022/02/09 09:09:52;;;;;;;9.75;6.22;;;8.00;99.90;;;;;;5053784;28;20218;-69
2022/02/09 10:01:51;;;;;;;9.77;6.57;;;8.60;99.90;;;;;;5052799;28;20191;-69
2022/02/09 10:33:06;;;;;;;9.02;6.15;;;9.30;99.90;;;;;;5053254;28;20760;-70
2022/02/09 10:35:37;;;;;;;7.40;6.70;;;9.40;99.90;;;;;;5053186;28;20306;-70
2022/02/09 10:38:20;;;;;;;8.60;6.90;;;9.40;99.90;;;;;;5056128;28;20665;-70
2022/02/09 10:40:51;;;;;;;10.25;8.20;;;9.50;99.90;;;;;;5056731;28;20195;-70
2022/02/09 10:43:27;;;;;;;14.10;6.90;;;9.60;99.90;;;;;;5057224;28;20231;-70
2022/02/09 10:46:09;;;;;;;8.82;6.93;;;9.70;99.90;;;;;;5057033;28;20229;-70
2022/02/09 10:48:43;;;;;;;7.20;6.35;;;9.80;99.90;;;;;;5057020;28;20752;-70
2022/02/09 10:51:26;;;;;;;6.97;5.53;;;9.90;99.90;;;;;;5056251;28;20235;-70
2022/02/09 10:54:17;;;;;;;9.80;6.70;;;9.90;99.90;;;;;;5056655;28;20253;-70
2022/02/09 10:56:46;;;;;;;7.70;6.40;;;10.00;99.90;;;;;;5041774;28;20242;-70
2022/02/09 10:59:16;;;;;;;9.10;6.45;;;10.10;99.90;;;;;;5056711;28;20567;-69
2022/02/09 11:01:44;;;;;;;8.55;5.95;;;10.20;99.90;;;;;;5056117;28;20290;-70
2022/02/09 11:04:13;;;;;;;10.20;6.00;;;10.50;99.90;;;;;;5055970;28;20250;-70
2022/02/09 11:06:42;;;;;;;6.80;6.00;;;10.50;99.90;;;;;;5056331;28;20203;-70
2022/02/09 11:09:11;;;;;;;6.75;5.82;;;10.50;99.90;;;;;;5056573;28;20219;-70
2022/02/09 11:11:41;;;;;;;9.07;6.40;;;10.60;99.90;;;;;;5056388;28;20230;-69
2022/02/09 11:14:11;;;;;;;10.25;6.18;;;10.90;99.90;;;;;;5056542;28;20206;-70
2022/02/09 11:16:40;;;;;;;7.18;6.47;;;11.10;99.90;;;;;;5056601;28;20192;-70
2022/02/09 11:19:09;;;;;;;8.68;6.07;;;11.20;99.90;;;;;;5056634;28;20292;-70
2022/02/09 11:21:38;;;;;;;15.98;6.88;;;11.30;99.90;;;;;;5056433;28;20542;-70
2022/02/09 11:24:16;;;;;;;6.57;5.55;;;11.60;99.90;;;;;;5056562;28;20203;-70
2022/02/09 11:26:49;;;;;;;8.30;6.38;;;12.00;99.90;;;;;;5056236;28;20282;-70
2022/02/09 11:29:23;;;;;;;6.40;4.90;;;12.40;99.90;;;;;;5056293;28;20203;-70
2022/02/09 11:32:15;;;;;;;7.05;5.03;;;13.00;99.90;;;;;;5055818;28;20223;-70
2022/02/09 11:40:50;;;;;;;10.27;5.70;;;13.40;97.40;;;;;;5055581;28;20200;-70
2022/02/09 11:43:41;;;;;;;6.20;4.88;;;13.30;97.80;;;;;;5055903;28;20257;-70
2022/02/09 11:46:28;;;;;;;5.80;5.20;;;13.40;97.50;;;;;;5055926;28;20590;-70
2022/02/09 11:55:19;;;;;;;6.97;4.38;;;14.10;95.40;;;;;;5092136;28;20568;-69
2022/02/09 12:01:11;;;;;;;5.03;4.53;;;13.80;95.30;;;;;;5091255;28;20220;-69
2022/02/09 12:09:25;;;;;;;4.25;3.63;;;13.30;95.60;;;;;;5091501;28;20197;-69
2022/02/09 12:12:02;;;;;;;4.93;4.43;;;13.30;96.00;;;;;;5090674;28;20225;-68
2022/02/09 12:14:49;;;;;;;4.80;4.03;;;13.20;95.90;;;;;;5090401;28;20225;-68
2022/02/09 12:17:28;;;;;;;4.38;3.97;;;13.40;96.30;;;;;;5090726;28;20248;-68
2022/02/09 12:20:06;;;;;;;9.43;4.07;;;13.70;96.20;;;;;;5090487;28;20211;-69
2022/02/09 12:22:43;;;;;;;5.13;4.35;;;14.00;95.70;;;;;;5090675;28;20207;-69
2022/02/09 12:25:10;;;;;;;6.93;4.28;;;14.40;94.70;;;;;;5090469;28;20310;-69
2022/02/09 12:27:38;;;;;;;5.18;4.10;;;14.70;93.90;;;;;;5090521;28;20243;-69
2022/02/09 12:30:10;;;;;;;5.78;4.20;;;15.00;93.40;;;;;;5090280;28;20219;-69
2022/02/09 12:32:38;;;;;;;4.25;3.85;;;15.20;93.20;;;;;;5090458;28;20220;-69
2022/02/09 12:35:07;;;;;;;4.65;4.05;;;15.50;92.30;;;;;;5090284;28;20225;-69
2022/02/09 12:37:36;;;;;;;4.78;3.40;;;15.70;91.20;;;;;;5090347;28;20304;-69
2022/02/09 12:40:08;;;;;;;5.45;4.22;;;16.00;91.20;;;;;;5089904;28;20545;-69
2022/02/09 12:42:36;;;;;;;4.43;3.08;;;16.10;90.60;;;;;;5090308;28;20211;-69
2022/02/09 12:45:08;;;;;;;5.00;4.10;;;16.40;90.10;;;;;;5090145;28;20561;-69
2022/02/09 12:47:39;;;;;;;5.22;3.30;;;16.80;88.60;;;;;;5090240;28;20560;-69
2022/02/09 12:50:08;;;;;;;5.50;3.67;;;17.20;86.70;;;;;;5089939;28;20210;-69
2022/02/09 12:52:36;;;;;;;5.17;4.03;;;17.80;85.10;;;;;;5089699;28;21007;-69
2022/02/09 12:55:06;;;;;;;5.03;3.70;;;18.20;81.90;;;;;;5090197;28;20494;-69
2022/02/09 12:57:38;;;;;;;3.93;3.53;;;18.40;80.60;;;;;;5090005;28;20451;-69
2022/02/09 13:00:10;;;;;;;3.77;3.20;;;18.80;78.20;;;;;;5089630;28;20546;-69
2022/02/09 13:02:45;;;;;;;3.90;3.60;;;19.50;76.90;;;;;;5089894;28;20522;-69
2022/02/09 13:05:12;;;;;;;4.90;3.80;;;19.60;75.60;;;;;;5081860;28;20865;-69
2022/02/09 13:07:39;;;;;;;3.60;3.20;;;19.80;73.20;;;;;;5076288;28;20524;-69
2022/02/09 13:10:08;;;;;;;4.90;4.33;;;19.80;71.60;;;;;;5075893;28;21014;-69
2022/02/09 13:12:41;;;;;;;4.50;3.97;;;19.80;71.00;;;;;;5076108;28;20449;-69
2022/02/09 13:15:17;;;;;;;4.03;3.30;;;19.90;70.90;;;;;;5075771;28;20527;-69
2022/02/09 13:17:57;;;;;;;3.90;3.03;;;19.50;70.80;;;;;;5076292;28;20444;-69
2022/02/09 13:21:05;;;;;;;3.27;2.80;;;19.40;71.30;;;;;;5076225;28;20488;-69
2022/02/09 13:26:40;;;;;;;5.38;3.45;;;18.10;72.30;;;;;;5075687;28;20488;-69
2022/02/09 14:17:03;;;;;;;2.80;2.20;;;14.30;91.70;;;;;;5073491;28;20191;-69
2022/02/09 14:52:51;;;;;;;3.17;2.42;;;14.10;94.00;;;;;;5012626;28;20196;-69
2022/02/09 14:55:42;;;;;;;3.70;2.58;;;14.10;93.50;;;;;;5061759;28;20231;-68
2022/02/09 14:58:12;;;;;;;6.35;2.60;;;14.10;93.60;;;;;;5074291;28;20226;-68
2022/02/09 15:00:51;;;;;;;2.85;2.60;;;14.00;93.60;;;;;;5073691;28;20209;-68
2022/02/09 15:03:36;;;;;;;4.65;2.70;;;13.90;93.80;;;;;;5073873;28;20206;-68
2022/02/09 15:08:59;;;;;;;3.10;2.80;;;13.80;94.00;;;;;;5058235;28;20195;-69
2022/02/09 15:11:33;;;;;;;3.63;2.20;;;13.70;95.00;;;;;;5073473;28;20239;-69
2022/02/09 15:14:11;;;;;;;4.38;2.80;;;13.70;94.30;;;;;;5073875;28;20224;-68
2022/02/09 15:16:48;;;;;;;5.45;2.55;;;13.70;94.40;;;;;;5073935;28;20205;-69
2022/02/09 15:19:24;;;;;;;3.15;2.38;;;13.80;95.00;;;;;;5073758;28;20218;-69
2022/02/09 15:22:03;;;;;;;4.18;2.78;;;13.70;95.00;;;;;;5073701;28;20226;-68
2022/02/09 15:24:37;;;;;;;5.07;3.10;;;13.60;95.30;;;;;;5073460;28;20214;-68
2022/02/09 15:27:06;;;;;;;3.85;2.90;;;13.50;95.00;;;;;;5073791;28;20187;-68
2022/02/09 15:29:37;;;;;;;3.10;2.80;;;13.50;94.80;;;;;;5073454;28;20205;-68
2022/02/09 15:32:08;;;;;;;6.30;3.00;;;13.50;94.80;;;;;;5073738;28;20205;-69
2022/02/09 15:34:40;;;;;;;4.47;3.65;;;13.50;94.30;;;;;;5073493;28;20693;-68
2022/02/09 15:37:14;;;;;;;6.25;3.00;;;13.40;95.60;;;;;;5073391;28;20225;-68
2022/02/09 15:39:44;;;;;;;3.35;2.50;;;13.30;95.20;;;;;;5073378;28;20214;-69
2022/02/09 15:42:34;;;;;;;5.57;2.75;;;13.20;95.00;;;;;;5073496;28;20228;-68
2022/02/09 15:56:23;;;;;;;3.15;2.42;;;12.90;97.00;;;;;;5073373;28;20222;-68
2022/02/09 16:09:56;;;;;;;3.90;2.67;;;12.70;97.10;;;;;;5073251;28;20197;-69
2022/02/09 16:18:54;;;;;;;6.20;3.45;;;12.70;97.40;;;;;;5073060;28;20205;-69
2022/02/09 16:23:44;;;;;;;5.50;2.65;;;12.50;98.20;;;;;;5073240;28;20255;-69
2022/02/09 16:45:23;;;;;;;3.58;3.10;;;11.50;99.90;;;;;;5076912;28;20221;-69
2022/02/09 16:47:59;;;;;;;5.32;4.30;;;11.40;99.90;;;;;;5076834;28;20207;-70
2022/02/09 16:50:34;;;;;;;8.05;5.32;;;11.30;99.90;;;;;;5076738;28;20260;-70
2022/02/09 16:53:07;;;;;;;7.30;4.97;;;11.30;99.90;;;;;;5076845;28;20210;-70
2022/02/09 17:20:24;;;;;;;5.10;4.60;;;10.20;99.90;;;;;;5068777;28;20245;-69
2022/02/09 17:22:51;;;;;;;7.97;4.85;;;10.10;99.90;;;;;;5076089;28;20293;-69
2022/02/09 17:25:18;;;;;;;6.03;4.20;;;10.10;99.90;;;;;;5076047;28;20219;-69
2022/02/09 17:27:47;;;;;;;7.13;4.70;;;10.00;99.90;;;;;;5075994;28;20202;-69
2022/02/09 17:30:56;;;;;;;8.00;4.22;;;10.00;99.90;;;;;;5075799;28;20207;-69
2022/02/09 17:33:41;;;;;;;9.07;4.57;;;9.90;99.90;;;;;;5076141;28;20669;-69
2022/02/09 17:36:18;;;;;;;9.10;5.32;;;9.80;99.90;;;;;;5075963;28;20242;-69
2022/02/09 17:38:51;;;;;;;9.15;5.13;;;9.80;99.90;;;;;;5075693;28;20217;-69
2022/02/09 17:57:53;;;;;;;5.80;4.35;;;9.50;99.90;;;;;;5076218;28;20175;-70
2022/02/09 18:00:20;;;;;;;5.80;5.15;;;9.40;99.90;;;;;;5075777;28;20268;-69
2022/02/09 18:02:48;;;;;;;7.22;4.55;;;9.40;99.90;;;;;;5076190;28;20203;-70
2022/02/09 18:05:22;;;;;;;5.85;4.75;;;9.40;99.90;;;;;;5076286;28;20280;-70
2022/02/09 18:07:55;;;;;;;7.75;5.93;;;9.30;99.90;;;;;;5076613;28;20213;-70
2022/02/09 18:10:29;;;;;;;20.73;15.10;;;9.30;99.90;;;;;;5076470;28;20224;-69
2022/02/09 18:29:33;;;;;;;7.82;5.20;;;9.10;99.90;;;;;;5074807;28;20171;-69
2022/02/09 18:37:43;;;;;;;7.70;6.13;;;9.00;99.90;;;;;;5074573;28;20234;-69
2022/02/09 18:43:10;;;;;;;8.95;7.47;;;8.90;99.90;;;;;;5074524;28;20294;-69
2022/02/09 18:45:43;;;;;;;11.82;9.65;;;8.90;99.90;;;;;;5075351;28;20230;-69
2022/02/09 18:48:33;;;;;;;12.40;9.50;;;8.80;99.90;;;;;;5074529;28;20305;-69
2022/02/09 18:59:28;;;;;;;9.75;7.60;;;8.80;99.90;;;;;;5058403;28;20206;-69
2022/02/09 19:05:02;;;;;;;10.60;7.90;;;8.70;99.90;;;;;;5012446;28;20295;-69
2022/02/09 19:08:06;;;;;;;10.63;7.25;;;8.70;99.90;;;;;;5063620;28;20218;-69
2022/02/09 19:19:04;;;;;;;30.92;21.65;;;8.60;99.90;;;;;;5073836;28;20197;-69
2022/02/09 19:27:34;;;;;;;10.23;6.70;;;8.50;99.90;;;;;;5073773;28;20186;-69
2022/02/09 19:30:07;;;;;;;7.53;5.75;;;8.50;99.90;;;;;;5073652;28;20286;-69
2022/02/09 19:32:59;;;;;;;5.63;4.35;;;8.40;99.90;;;;;;5073527;28;20210;-69
2022/02/09 19:46:42;;;;;;;7.13;5.32;;;8.50;99.90;;;;;;5073323;28;20218;-69
2022/02/09 19:49:15;;;;;;;6.28;5.45;;;8.40;99.90;;;;;;5073394;28;20248;-69
2022/02/09 19:51:46;;;;;;;7.18;4.80;;;8.30;99.90;;;;;;5073587;28;20202;-69
2022/02/09 19:54:26;;;;;;;5.63;4.70;;;8.30;99.90;;;;;;5073455;28;20381;-69
2022/02/09 19:57:01;;;;;;;5.93;3.90;;;8.10;99.90;;;;;;5073602;28;20198;-69
2022/02/09 19:59:30;;;;;;;4.63;3.83;;;8.20;99.90;;;;;;5073526;28;20214;-69
2022/02/09 20:01:58;;;;;;;4.88;4.40;;;8.10;99.90;;;;;;5073293;28;20202;-69
2022/02/09 20:04:25;;;;;;;4.50;4.10;;;8.10;99.90;;;;;;5073351;28;20608;-69
2022/02/09 20:06:52;;;;;;;4.78;4.10;;;8.10;99.90;;;;;;5073560;28;20294;-70
2022/02/09 20:09:24;;;;;;;4.68;4.28;;;8.20;99.90;;;;;;5073899;28;20202;-70
2022/02/09 20:11:51;;;;;;;7.60;5.63;;;8.30;99.90;;;;;;5073548;28;20658;-69
2022/02/09 20:14:18;;;;;;;6.85;5.88;;;8.20;99.90;;;;;;5073490;28;20658;-69
2022/02/09 20:16:45;;;;;;;9.63;5.93;;;8.20;99.90;;;;;;5078752;28;20198;-70
2022/02/09 20:19:13;;;;;;;11.10;6.13;;;8.10;99.90;;;;;;5078057;28;20297;-70
2022/02/09 20:21:40;;;;;;;10.23;6.20;;;8.20;99.90;;;;;;5077700;28;20309;-70
2022/02/09 20:24:12;;;;;;;8.40;6.63;;;8.20;99.90;;;;;;5077369;28;20737;-70
2022/02/09 20:26:38;;;;;;;9.65;5.70;;;8.30;99.90;;;;;;5077540;28;20233;-70
2022/02/09 20:29:09;;;;;;;6.43;5.78;;;8.20;99.90;;;;;;5077401;28;20324;-70
2022/02/09 20:31:45;;;;;;;7.60;6.07;;;8.30;99.90;;;;;;5076975;28;20225;-70
2022/02/09 20:34:21;;;;;;;6.35;5.43;;;8.30;99.90;;;;;;5077021;28;20297;-70
2022/02/09 20:36:48;;;;;;;6.90;6.22;;;8.30;99.90;;;;;;5076830;28;20199;-70
2022/02/09 20:39:20;;;;;;;8.50;6.68;;;8.30;99.90;;;;;;5076905;28;20203;-69
2022/02/09 20:41:47;;;;;;;10.43;6.78;;;8.20;99.90;;;;;;5076625;28;20256;-69
2022/02/09 20:44:22;;;;;;;8.38;6.50;;;8.10;99.90;;;;;;5077048;28;20202;-69
2022/02/09 20:46:50;;;;;;;7.55;6.82;;;8.00;99.90;;;;;;5076877;28;20214;-69
2022/02/09 20:49:18;;;;;;;10.70;8.07;;;7.90;99.90;;;;;;5076689;28;20211;-69
2022/02/09 20:51:45;;;;;;;8.20;7.07;;;7.90;99.90;;;;;;5076266;28;20206;-69
2022/02/09 20:54:11;;;;;;;9.63;7.00;;;7.80;99.90;;;;;;5076231;28;20207;-69
2022/02/09 20:56:39;;;;;;;8.10;7.30;;;7.70;99.90;;;;;;5076617;28;20230;-69
2022/02/09 20:59:09;;;;;;;8.20;6.07;;;7.70;99.90;;;;;;5076650;28;20257;-69
2022/02/09 21:01:41;;;;;;;7.25;6.50;;;7.70;99.90;;;;;;5076097;28;20264;-69
2022/02/09 21:04:11;;;;;;;9.90;7.18;;;7.70;99.90;;;;;;5076374;28;20198;-69
2022/02/09 21:06:55;;;;;;;7.57;5.75;;;7.70;99.90;;;;;;5076475;28;20203;-69
2022/02/09 21:09:30;;;;;;;9.02;6.00;;;7.60;99.90;;;;;;5076505;28;20188;-69
2022/02/09 21:12:08;;;;;;;9.65;5.53;;;7.60;99.90;;;;;;5076155;28;20250;-69
2022/02/09 21:17:51;;;;;;;7.30;6.00;;;7.70;99.90;;;;;;5034366;28;20257;-70
2022/02/09 21:32:00;;;;;;;10.13;8.30;;;7.60;99.90;;;;;;5074489;28;20328;-70
2022/02/09 21:53:59;;;;;;;7.47;6.38;;;7.20;99.90;;;;;;5073976;28;20206;-68
2022/02/09 21:56:33;;;;;;;11.25;7.70;;;7.20;99.90;;;;;;5074882;28;20315;-70
2022/02/09 21:59:20;;;;;;;11.95;7.78;;;7.20;99.90;;;;;;5074293;28;20242;-70
2022/02/09 22:21:17;;;;;;;9.23;7.60;;;7.10;99.90;;;;;;5073388;28;20190;-72
2022/02/09 22:24:33;;;;;;;11.70;8.88;;;7.10;99.90;;;;;;5073819;28;20633;-71
2022/02/09 22:27:01;;;;;;;10.65;9.25;;;7.10;99.90;;;;;;5073757;28;20203;-70
2022/02/09 22:30:09;;;;;;;12.70;8.98;;;7.00;99.90;;;;;;5073600;28;20205;-71
2022/02/09 22:49:37;;;;;;;12.13;8.65;;;6.70;99.90;;;;;;5011209;28;20557;-69
2022/02/09 22:54:49;;;;;;;10.68;9.52;;;6.70;99.90;;;;;;5053430;28;20229;-69
2022/02/09 22:57:17;;;;;;;10.85;9.00;;;6.70;99.90;;;;;;5073188;28;20672;-69
2022/02/09 22:59:48;;;;;;;9.73;8.27;;;6.70;99.90;;;;;;5073130;28;20206;-70
2022/02/09 23:02:24;;;;;;;11.80;9.18;;;6.60;99.90;;;;;;5073443;28;20203;-70
2022/02/09 23:05:13;;;;;;;11.15;9.45;;;6.50;99.90;;;;;;5073434;28;20231;-70
2022/02/09 23:07:52;;;;;;;11.13;8.55;;;6.50;99.90;;;;;;5073497;28;20198;-70
2022/02/09 23:10:26;;;;;;;14.50;8.45;;;6.50;99.90;;;;;;5073020;28;20198;-70
2022/02/09 23:12:58;;;;;;;9.90;7.13;;;6.50;99.90;;;;;;5073427;28;20618;-70
2022/02/09 23:15:35;;;;;;;9.75;7.63;;;6.50;99.90;;;;;;5073196;28;20599;-70
2022/02/09 23:18:35;;;;;;;8.93;7.70;;;6.50;99.90;;;;;;5073149;28;20264;-70
2022/02/09 23:24:08;;;;;;;9.65;7.85;;;6.50;99.90;;;;;;5010797;28;20204;-71
2022/02/09 23:54:34;;;;;;;8.27;6.43;;;6.00;99.90;;;;;;5072408;28;20227;-71
2022/02/09 23:57:32;;;;;;;8.95;6.90;;;6.10;99.90;;;;;;5072843;28;20595;-69
